Terminal Aerodrome Forecast
Issued by NWS Raleigh/Durham, NC

Current Version | Previous Version | Text Only | Print | Product List | Glossary On
Versions: 1 2 3 4 5 6 7 8 9 10 11 12 13 14 15 16 17 18 19 20 21 22 23 24 25 26 27 28 29 30
000
FTUS42 KRAH 072342
TAFRDU
TAF
KRDU 072342Z 0800/0824 VRB03KT P6SM SCT050 BKN250
     FM080500 VRB03KT P6SM BKN030
      TEMPO 0807/0809 BKN020
     FM080900 VRB04KT P6SM SCT010 OVC020 PROB30 0811/0814 4SM -RA
      BKN010
     FM081600 31008G15KT P6SM SCT040 BKN150=

USA.gov is the U.S. government's official web portal to all federal, state and local government web resources and services.